createdAt,value
2018-07-21T00:01:41.355Z,13.37
2018-07-21T00:04:08.977Z,13.03
2018-07-21T00:06:36.573Z,13.17
2018-07-21T00:09:07.533Z,13.00
2018-07-21T00:11:35.288Z,17.43
2018-07-21T00:14:03.202Z,14.40
2018-07-21T00:16:31.059Z,14.27
2018-07-21T00:18:58.693Z,12.80
2018-07-21T00:21:26.282Z,13.27
2018-07-21T00:23:53.855Z,14.63
2018-07-21T00:26:21.442Z,15.37
2018-07-21T00:28:49.294Z,13.70
2018-07-21T00:31:17.174Z,12.33
2018-07-21T00:33:44.737Z,15.13
2018-07-21T00:36:12.593Z,17.80
2018-07-21T00:38:40.171Z,13.70
2018-07-21T00:41:07.784Z,13.87
2018-07-21T00:43:35.518Z,13.50
2018-07-21T00:46:03.505Z,15.10
2018-07-21T00:48:31.367Z,13.00
2018-07-21T00:50:59.388Z,12.57
2018-07-21T00:53:30.946Z,12.60
2018-07-21T00:55:59.024Z,14.27
2018-07-21T00:58:26.887Z,13.10
2018-07-21T01:00:55.000Z,13.17
2018-07-21T01:03:22.758Z,17.20
2018-07-21T01:05:50.574Z,14.80
2018-07-21T01:08:18.374Z,13.40
2018-07-21T01:10:46.216Z,14.67
2018-07-21T01:13:14.145Z,19.87
2018-07-21T01:15:41.918Z,13.73
2018-07-21T01:18:09.769Z,15.73
2018-07-21T01:20:37.402Z,12.83
2018-07-21T01:23:05.453Z,13.23
2018-07-21T01:25:33.462Z,13.70
2018-07-21T01:28:01.424Z,14.30
2018-07-21T01:30:29.558Z,12.67
2018-07-21T01:32:57.380Z,11.87
2018-07-21T01:35:26.158Z,12.50
2018-07-21T01:37:55.368Z,13.47
2018-07-21T01:40:24.913Z,12.40
2018-07-21T01:42:54.826Z,12.90
2018-07-21T01:45:22.665Z,14.33
2018-07-21T01:47:51.276Z,15.73
2018-07-21T01:50:19.200Z,13.47
2018-07-21T01:52:47.040Z,13.37
2018-07-21T01:55:16.511Z,15.07
2018-07-21T01:57:44.910Z,13.70
2018-07-21T02:00:14.235Z,14.63
2018-07-21T02:02:43.959Z,14.67
2018-07-21T02:05:12.025Z,15.23
2018-07-21T02:07:39.844Z,13.80
2018-07-21T02:10:07.629Z,13.57
2018-07-21T02:12:36.461Z,12.93
2018-07-21T02:15:04.549Z,14.60
2018-07-21T02:17:32.542Z,15.17
2018-07-21T02:20:01.233Z,11.90
2018-07-21T02:22:29.960Z,13.47
2018-07-21T02:24:58.841Z,13.13
2018-07-21T02:27:29.523Z,14.53
2018-07-21T02:29:59.113Z,14.60
2018-07-21T02:32:28.677Z,13.80
2018-07-21T02:34:56.570Z,14.30
2018-07-21T02:37:24.428Z,12.53
2018-07-21T02:39:53.113Z,13.37
2018-07-21T02:42:20.833Z,13.90
2018-07-21T02:44:48.700Z,15.80
2018-07-21T02:47:16.531Z,13.47
2018-07-21T02:49:45.083Z,13.43
2018-07-21T02:52:14.327Z,13.10
2018-07-21T02:54:43.660Z,15.10
2018-07-21T02:57:11.735Z,13.20
2018-07-21T02:59:41.188Z,16.23
2018-07-21T03:02:09.763Z,13.23
2018-07-21T03:04:39.410Z,12.33
2018-07-21T03:07:07.412Z,12.47
2018-07-21T03:09:35.183Z,14.73
2018-07-21T03:12:03.285Z,11.37
2018-07-21T03:14:31.481Z,11.93
2018-07-21T03:17:02.259Z,12.53
2018-07-21T03:19:36.055Z,12.63
2018-07-21T03:22:04.106Z,12.80
2018-07-21T03:24:32.183Z,12.43
2018-07-21T03:27:01.829Z,13.83
2018-07-21T03:29:29.771Z,12.70
2018-07-21T03:31:58.293Z,12.27
2018-07-21T03:34:26.797Z,11.57
2018-07-21T03:36:54.746Z,12.77
2018-07-21T03:39:24.976Z,13.40
2018-07-21T03:41:53.478Z,12.83
2018-07-21T03:44:21.382Z,12.73
2018-07-21T03:46:49.299Z,13.07
2018-07-21T03:49:18.657Z,12.53
2018-07-21T03:51:47.850Z,11.77
2018-07-21T03:54:19.630Z,12.97
2018-07-21T03:56:48.049Z,12.27
2018-07-21T03:59:15.608Z,12.13
2018-07-21T04:01:43.256Z,12.40
2018-07-21T04:04:10.834Z,12.70
2018-07-21T04:06:38.452Z,13.97
2018-07-21T04:09:07.266Z,13.67
2018-07-21T04:11:35.208Z,12.13
2018-07-21T04:14:03.301Z,17.30
2018-07-21T04:16:31.827Z,12.37
2018-07-21T04:19:02.957Z,13.87
2018-07-21T04:21:32.570Z,15.03
2018-07-21T04:24:01.694Z,18.07
2018-07-21T04:26:31.838Z,15.03
2018-07-21T04:29:02.113Z,15.30
2018-07-21T04:31:32.314Z,13.53
2018-07-21T04:34:01.553Z,14.40
2018-07-21T04:36:33.254Z,13.00
2018-07-21T04:39:02.046Z,13.87
2018-07-21T04:41:31.726Z,15.87
2018-07-21T04:44:01.522Z,14.23
2018-07-21T04:46:32.578Z,13.97
2018-07-21T04:49:03.247Z,12.93
2018-07-21T04:51:32.143Z,13.90
2018-07-21T04:54:01.901Z,12.87
2018-07-21T04:56:32.332Z,13.77
2018-07-21T04:59:02.017Z,12.73
2018-07-21T05:01:31.129Z,15.03
2018-07-21T05:04:03.326Z,15.43
2018-07-21T05:06:34.171Z,14.73
2018-07-21T05:09:07.143Z,11.80
2018-07-21T05:11:35.332Z,11.93
2018-07-21T05:14:04.153Z,11.50
2018-07-21T05:16:33.898Z,14.60
2018-07-21T05:19:02.673Z,11.70
2018-07-21T05:21:33.350Z,12.27
2018-07-21T05:24:02.852Z,11.50
2018-07-21T05:26:39.767Z,13.27
2018-07-21T05:29:07.600Z,11.00
2018-07-21T05:31:36.564Z,10.73
2018-07-21T05:34:05.632Z,10.20
2018-07-21T05:36:33.257Z,11.73
2018-07-21T05:39:00.932Z,11.43
2018-07-21T05:41:28.538Z,14.13
2018-07-21T05:43:56.274Z,10.50
2018-07-21T05:46:23.937Z,11.50
2018-07-21T05:48:51.565Z,10.53
2018-07-21T05:51:19.132Z,12.80
2018-07-21T05:53:46.724Z,10.67
2018-07-21T05:56:14.341Z,10.13
2018-07-21T05:58:42.013Z,11.13
2018-07-21T06:01:09.778Z,11.47
2018-07-21T06:03:37.697Z,12.40
2018-07-21T06:06:06.354Z,12.57
2018-07-21T06:08:36.157Z,11.47
2018-07-21T06:11:05.562Z,11.40
2018-07-21T06:13:35.205Z,10.87
2018-07-21T06:16:04.658Z,10.17
2018-07-21T06:18:34.892Z,10.13
2018-07-21T06:21:05.623Z,9.37
2018-07-21T06:23:35.375Z,9.90
2018-07-21T06:26:05.281Z,9.80
2018-07-21T06:28:34.392Z,8.93
2018-07-21T06:31:02.504Z,7.95
2018-07-21T06:33:31.283Z,8.20
2018-07-21T06:35:59.977Z,7.97
2018-07-21T06:38:27.897Z,10.05
2018-07-21T06:41:00.001Z,8.60
2018-07-21T06:43:35.429Z,8.50
2018-07-21T06:46:08.275Z,9.88
2018-07-21T06:48:37.156Z,8.63
2018-07-21T06:51:09.161Z,8.80
2018-07-21T06:53:37.187Z,7.83
2018-07-21T06:56:06.966Z,8.83
2018-07-21T06:58:38.759Z,10.88
2018-07-21T07:01:07.694Z,10.18
2018-07-21T07:03:35.895Z,9.53
2018-07-21T07:06:05.767Z,9.50
2018-07-21T07:08:37.482Z,9.60
2018-07-21T07:11:08.421Z,9.10
2018-07-21T07:13:37.509Z,9.83
2018-07-21T07:16:07.178Z,11.60
2018-07-21T07:18:37.308Z,10.72
2018-07-21T07:21:06.286Z,10.88
2018-07-21T07:23:36.069Z,10.45
2018-07-21T07:26:06.488Z,11.28
2018-07-21T07:28:35.110Z,10.63
2018-07-21T07:31:05.444Z,11.40
2018-07-21T07:33:35.316Z,11.00
2018-07-21T07:36:05.608Z,12.37
2018-07-21T07:38:33.769Z,14.93
2018-07-21T07:41:06.052Z,12.35
2018-07-21T07:43:35.448Z,12.00
2018-07-21T07:46:05.009Z,12.97
2018-07-21T07:48:33.753Z,11.10
2018-07-21T07:51:09.031Z,10.82
2018-07-21T07:53:37.209Z,12.40
2018-07-21T07:56:06.325Z,11.48
2018-07-21T07:58:35.839Z,12.30
2018-07-21T08:01:07.459Z,11.55
2018-07-21T08:03:36.433Z,12.95
2018-07-21T08:06:05.889Z,11.80
2018-07-21T08:08:34.459Z,12.35
2018-07-21T08:11:05.325Z,11.43
2018-07-21T08:13:36.194Z,11.85
2018-07-21T08:16:05.145Z,11.20
2018-07-21T08:18:37.070Z,11.48
2018-07-21T08:21:05.590Z,11.28
2018-07-21T08:23:35.508Z,10.35
2018-07-21T08:26:06.598Z,10.55
2018-07-21T08:28:37.806Z,10.15
2018-07-21T08:31:05.833Z,11.25
2018-07-21T08:33:35.964Z,11.68
2018-07-21T08:36:06.561Z,12.33
2018-07-21T08:38:35.893Z,12.65
2018-07-21T08:41:05.053Z,12.63
2018-07-21T08:43:32.768Z,13.65
2018-07-21T08:46:04.617Z,15.30
2018-07-21T08:48:39.561Z,14.40
2018-07-21T08:51:07.577Z,14.73
2018-07-21T08:53:51.576Z,13.83
2018-07-21T08:56:39.331Z,17.02
2018-07-21T08:59:32.269Z,13.28
2018-07-21T09:02:16.436Z,12.65
2018-07-21T09:07:53.594Z,12.68
2018-07-21T09:10:44.350Z,13.50
2018-07-21T09:13:30.760Z,10.75
2018-07-21T09:16:10.637Z,11.88
2018-07-21T09:18:45.322Z,12.75
2018-07-21T09:21:33.868Z,13.05
2018-07-21T09:24:10.917Z,12.98
2018-07-21T09:26:42.420Z,12.82
2018-07-21T09:29:10.072Z,13.58
2018-07-21T09:31:37.978Z,12.80
2018-07-21T09:34:05.607Z,13.13
2018-07-21T09:36:33.162Z,13.00
2018-07-21T09:39:00.781Z,12.40
2018-07-21T09:41:28.397Z,19.67
2018-07-21T09:43:56.215Z,16.07
2018-07-21T09:46:23.843Z,14.10
2018-07-21T09:48:51.407Z,13.20
2018-07-21T09:51:19.010Z,11.50
2018-07-21T09:53:46.593Z,11.83
2018-07-21T09:56:14.154Z,14.13
2018-07-21T09:58:41.898Z,10.63
2018-07-21T10:01:09.804Z,12.73
2018-07-21T10:03:38.130Z,13.62
2018-07-21T10:06:05.957Z,11.68
2018-07-21T10:08:33.572Z,11.68
2018-07-21T10:11:01.177Z,11.30
2018-07-21T10:13:28.763Z,11.15
2018-07-21T10:15:56.748Z,10.60
2018-07-21T10:18:24.489Z,11.55
2018-07-21T10:20:52.094Z,13.62
2018-07-21T10:23:19.720Z,11.93
2018-07-21T10:25:53.082Z,12.85
2018-07-21T10:28:26.298Z,12.33
2018-07-21T10:30:54.028Z,13.50
2018-07-21T10:33:21.664Z,12.23
2018-07-21T10:35:49.214Z,12.73
2018-07-21T10:38:16.758Z,12.60
2018-07-21T10:40:44.322Z,9.60
2018-07-21T10:43:11.941Z,11.25
2018-07-21T10:45:39.601Z,12.03
2018-07-21T10:48:07.690Z,12.93
2018-07-21T10:50:35.283Z,12.05
2018-07-21T10:53:02.829Z,12.25
2018-07-21T10:55:30.418Z,12.93
2018-07-21T10:57:58.128Z,12.50
2018-07-21T11:00:25.736Z,12.30
2018-07-21T11:02:53.276Z,11.50
2018-07-21T11:05:20.873Z,14.53
2018-07-21T11:07:48.443Z,12.80
2018-07-21T11:10:16.085Z,16.37
2018-07-21T11:12:43.637Z,13.72
2018-07-21T11:15:11.313Z,12.28
2018-07-21T11:17:38.972Z,13.40
2018-07-21T11:20:07.011Z,14.47
2018-07-21T11:22:35.227Z,13.55
2018-07-21T11:25:02.884Z,13.65
2018-07-21T11:27:30.448Z,14.10
2018-07-21T11:29:58.008Z,15.90
2018-07-21T11:32:25.645Z,14.35
2018-07-21T11:34:53.353Z,16.02
2018-07-21T11:37:21.159Z,14.70
2018-07-21T11:39:48.837Z,14.73
2018-07-21T11:42:16.425Z,16.57
2018-07-21T11:44:44.289Z,13.85
2018-07-21T11:47:11.948Z,15.68
2018-07-21T11:49:39.676Z,13.32
2018-07-21T11:52:07.503Z,13.88
2018-07-21T11:54:35.268Z,13.28
2018-07-21T11:57:02.903Z,14.33
2018-07-21T11:59:31.556Z,11.68
2018-07-21T12:01:59.167Z,14.45
2018-07-21T12:04:27.616Z,16.20
2018-07-21T12:06:55.229Z,12.55
2018-07-21T12:09:23.263Z,12.93
2018-07-21T12:11:50.867Z,15.38
2018-07-21T12:14:18.519Z,10.08
2018-07-21T12:16:46.233Z,13.75
2018-07-21T12:19:15.737Z,13.75
2018-07-21T12:21:43.440Z,13.30
2018-07-21T12:24:11.096Z,12.37
2018-07-21T12:26:38.878Z,12.35
2018-07-21T12:29:06.741Z,12.78
2018-07-21T12:31:34.325Z,14.45
2018-07-21T12:34:01.930Z,12.23
2018-07-21T12:36:29.542Z,10.30
2018-07-21T12:38:57.238Z,10.50
2018-07-21T12:41:24.857Z,10.10
2018-07-21T12:43:52.494Z,11.35
2018-07-21T12:46:20.053Z,10.43
2018-07-21T12:48:47.642Z,11.60
2018-07-21T12:51:15.288Z,10.90
2018-07-21T12:53:43.133Z,13.93
2018-07-21T12:56:10.848Z,12.60
2018-07-21T12:58:38.649Z,13.38
2018-07-21T13:01:06.608Z,12.33
2018-07-21T13:03:34.257Z,11.55
2018-07-21T13:06:01.840Z,11.60
2018-07-21T13:08:29.410Z,14.87
2018-07-21T13:10:57.079Z,9.58
2018-07-21T13:13:24.687Z,11.65
2018-07-21T13:15:52.504Z,12.28
2018-07-21T13:18:20.061Z,11.38
2018-07-21T13:20:50.270Z,11.80
2018-07-21T13:23:18.065Z,11.57
2018-07-21T13:25:45.642Z,12.73
2018-07-21T13:28:13.220Z,10.85
2018-07-21T13:30:40.981Z,11.78
2018-07-21T13:33:08.793Z,13.70
2018-07-21T13:35:36.527Z,10.85
2018-07-21T13:38:04.304Z,14.03
2018-07-21T13:40:31.873Z,14.25
2018-07-21T13:42:59.573Z,11.08
2018-07-21T13:45:27.265Z,11.10
2018-07-21T13:47:55.049Z,11.12
2018-07-21T13:50:22.663Z,10.45
2018-07-21T13:52:50.232Z,13.15
2018-07-21T13:55:17.804Z,11.53
2018-07-21T13:57:45.421Z,13.10
2018-07-21T14:00:13.095Z,11.38
2018-07-21T14:02:40.805Z,10.63
2018-07-21T14:05:08.677Z,12.20
2018-07-21T14:07:36.665Z,11.45
2018-07-21T14:10:05.651Z,10.70
2018-07-21T14:12:33.231Z,11.83
2018-07-21T14:15:00.829Z,11.53
2018-07-21T14:17:28.546Z,11.10
2018-07-21T14:19:56.187Z,10.03
2018-07-21T14:22:23.809Z,11.38
2018-07-21T14:24:51.429Z,11.15
2018-07-21T14:27:18.983Z,12.47
2018-07-21T14:29:46.901Z,10.70
2018-07-21T14:32:14.460Z,10.18
2018-07-21T14:34:42.070Z,9.98
2018-07-21T14:37:09.781Z,11.30
2018-07-21T14:39:37.576Z,10.80
2018-07-21T14:42:05.596Z,11.30
2018-07-21T14:44:33.217Z,10.20
2018-07-21T14:47:00.808Z,10.28
2018-07-21T14:49:28.501Z,12.05
2018-07-21T14:51:56.140Z,9.70
2018-07-21T14:54:23.865Z,10.68
2018-07-21T14:56:51.448Z,13.65
2018-07-21T14:59:19.074Z,9.73
2018-07-21T15:01:46.653Z,16.00
2018-07-21T15:04:14.245Z,11.88
2018-07-21T15:06:41.862Z,11.78
2018-07-21T15:09:10.760Z,11.43
2018-07-21T15:11:38.549Z,15.58
2018-07-21T15:14:06.364Z,16.30
2018-07-21T15:16:33.969Z,20.00
2018-07-21T15:19:01.506Z,18.07
2018-07-21T15:21:29.089Z,18.25
2018-07-21T15:23:56.848Z,21.42
2018-07-21T15:26:24.473Z,18.50
2018-07-21T15:28:53.622Z,18.35
2018-07-21T15:31:21.240Z,18.80
2018-07-21T15:33:50.279Z,17.27
2018-07-21T15:36:18.063Z,19.00
2018-07-21T15:38:45.822Z,17.80
2018-07-21T15:41:13.428Z,19.33
2018-07-21T15:43:41.113Z,17.43
2018-07-21T15:46:08.805Z,16.30
2018-07-21T15:48:36.552Z,16.93
2018-07-21T15:51:04.135Z,15.60
2018-07-21T15:53:31.716Z,15.97
2018-07-21T15:55:59.308Z,16.93
2018-07-21T15:58:26.873Z,17.83
2018-07-21T16:00:54.498Z,17.17
2018-07-21T16:03:22.108Z,16.23
2018-07-21T16:05:49.738Z,18.40
2018-07-21T16:08:17.328Z,19.40
2018-07-21T16:10:44.867Z,21.13
2018-07-21T16:13:12.456Z,21.30
2018-07-21T16:15:40.095Z,21.13
2018-07-21T16:18:07.897Z,22.53
2018-07-21T16:20:35.499Z,22.77
2018-07-21T16:23:03.145Z,22.17
2018-07-21T16:25:30.756Z,21.30
2018-07-21T16:27:58.345Z,22.03
2018-07-21T16:30:26.033Z,21.27
2018-07-21T16:32:53.617Z,22.30
2018-07-21T16:35:21.187Z,23.33
2018-07-21T16:37:49.058Z,17.70
2018-07-21T16:40:16.631Z,20.47
2018-07-21T16:42:44.168Z,20.97
2018-07-21T16:45:11.787Z,21.57
2018-07-21T16:47:39.549Z,21.90
2018-07-21T16:50:07.419Z,22.30
2018-07-21T16:52:35.058Z,23.47
2018-07-21T16:55:02.673Z,20.90
2018-07-21T16:57:30.217Z,21.83
2018-07-21T16:59:57.862Z,21.10
2018-07-21T17:02:25.457Z,20.27
2018-07-21T17:04:53.038Z,20.40
2018-07-21T17:07:20.636Z,18.60
2018-07-21T17:09:48.170Z,17.80
2018-07-21T17:12:15.812Z,17.40
2018-07-21T17:14:43.395Z,17.40
2018-07-21T17:17:11.267Z,17.10
2018-07-21T17:19:38.930Z,16.47
2018-07-21T17:22:06.652Z,16.90
2018-07-21T17:24:34.280Z,16.37
2018-07-21T17:27:01.839Z,14.60
2018-07-21T17:29:29.458Z,14.87
2018-07-21T17:31:57.052Z,14.33
2018-07-21T17:34:24.668Z,18.00
2018-07-21T17:36:52.321Z,14.80
2018-07-21T17:39:19.900Z,15.17
2018-07-21T17:41:47.490Z,14.70
2018-07-21T17:44:15.057Z,15.27
2018-07-21T17:46:42.677Z,14.67
2018-07-21T17:49:10.328Z,14.47
2018-07-21T17:51:38.020Z,15.73
2018-07-21T17:54:05.671Z,15.17
2018-07-21T17:56:33.320Z,15.53
2018-07-21T17:59:00.888Z,15.70
2018-07-21T18:01:28.553Z,15.37
2018-07-21T18:03:56.129Z,16.27
2018-07-21T18:06:23.733Z,16.10
2018-07-21T18:08:51.346Z,18.70
2018-07-21T18:11:18.939Z,15.93
2018-07-21T18:13:46.546Z,16.23
2018-07-21T18:16:14.277Z,15.20
2018-07-21T18:18:41.886Z,15.53
2018-07-21T18:21:09.577Z,16.97
2018-07-21T18:23:37.348Z,15.80
2018-07-21T18:26:04.974Z,15.57
2018-07-21T18:28:32.557Z,16.40
2018-07-21T18:31:00.136Z,16.03
2018-07-21T18:33:27.799Z,15.53
2018-07-21T18:35:55.395Z,15.90
2018-07-21T18:38:23.012Z,16.00
2018-07-21T18:40:50.568Z,15.33
2018-07-21T18:43:18.125Z,15.30
2018-07-21T18:45:45.684Z,15.33
2018-07-21T18:48:13.412Z,15.30
2018-07-21T18:50:41.077Z,15.27
2018-07-21T18:53:08.773Z,15.67
2018-07-21T18:55:36.485Z,15.90
2018-07-21T18:58:04.064Z,15.30
2018-07-21T19:00:31.653Z,16.77
2018-07-21T19:02:59.292Z,16.77
2018-07-21T19:05:26.858Z,17.60
2018-07-21T19:07:54.505Z,16.93
2018-07-21T19:10:22.085Z,16.10
2018-07-21T19:12:49.949Z,15.60
2018-07-21T19:17:24.197Z,15.27
2018-07-21T19:19:57.278Z,15.87
2018-07-21T19:22:25.091Z,16.37
2018-07-21T19:24:52.680Z,16.83
2018-07-21T19:27:25.872Z,15.90
2018-07-21T19:29:53.474Z,14.97
2018-07-21T19:32:26.626Z,13.17
2018-07-21T19:34:54.253Z,12.50
2018-07-21T19:37:27.324Z,12.90
2018-07-21T19:39:55.042Z,12.20
2018-07-21T19:42:22.596Z,12.37
2018-07-21T19:44:50.256Z,12.00
2018-07-21T19:47:17.942Z,11.70
2018-07-21T19:49:45.407Z,10.50
2018-07-21T19:52:13.022Z,11.83
2018-07-21T19:54:40.649Z,11.07
2018-07-21T19:57:08.437Z,11.17
2018-07-21T19:59:36.095Z,11.60
2018-07-21T20:02:03.729Z,10.27
2018-07-21T20:04:31.319Z,10.10
2018-07-21T20:06:58.876Z,10.20
2018-07-21T20:09:26.531Z,9.90
2018-07-21T20:11:54.121Z,9.60
2018-07-21T20:14:21.836Z,8.47
2018-07-21T20:16:49.400Z,8.70
2018-07-21T20:19:17.005Z,8.63
2018-07-21T20:21:44.561Z,8.07
2018-07-21T20:24:12.203Z,8.90
2018-07-21T20:26:39.854Z,7.87
2018-07-21T20:29:07.583Z,7.60
2018-07-21T20:31:35.186Z,7.67
2018-07-21T20:34:02.764Z,7.37
2018-07-21T20:36:30.364Z,7.73
2018-07-21T20:38:57.956Z,8.07
2018-07-21T20:41:25.650Z,7.63
2018-07-21T20:43:53.257Z,7.97
2018-07-21T20:46:20.845Z,8.67
2018-07-21T20:48:48.452Z,8.87
2018-07-21T20:51:16.019Z,8.87
2018-07-21T20:53:43.571Z,8.50
2018-07-21T20:56:11.291Z,8.83
2018-07-21T20:58:39.011Z,8.90
2018-07-21T21:01:06.937Z,8.83
2018-07-21T21:03:34.528Z,9.60
2018-07-21T21:06:02.376Z,10.17
2018-07-21T21:08:29.957Z,10.37
2018-07-21T21:10:57.609Z,10.83
2018-07-21T21:13:25.388Z,10.70
2018-07-21T21:15:52.945Z,10.43
2018-07-21T21:18:20.560Z,11.83
2018-07-21T21:20:48.213Z,12.23
2018-07-21T21:23:16.005Z,11.87
2018-07-21T21:25:43.662Z,10.93
2018-07-21T21:28:11.225Z,11.40
2018-07-21T21:30:38.780Z,11.90
2018-07-21T21:33:06.377Z,13.20
2018-07-21T21:35:34.084Z,11.90
2018-07-21T21:38:01.646Z,12.17
2018-07-21T21:40:29.294Z,12.80
2018-07-21T21:42:57.053Z,13.10
2018-07-21T21:45:24.621Z,12.70
2018-07-21T21:47:52.200Z,13.23
2018-07-21T21:50:19.758Z,13.63
2018-07-21T21:52:47.516Z,14.67
2018-07-21T21:55:15.110Z,15.33
2018-07-21T21:57:42.799Z,15.73
2018-07-21T22:00:11.789Z,16.70
2018-07-21T22:02:39.886Z,16.33
2018-07-21T22:05:07.501Z,16.50
2018-07-21T22:07:35.046Z,16.43
2018-07-21T22:10:02.696Z,16.90
2018-07-21T22:12:30.340Z,15.60
2018-07-21T22:14:58.093Z,16.47
2018-07-21T22:17:25.894Z,16.43
2018-07-21T22:19:53.454Z,16.93
2018-07-21T22:22:21.085Z,16.60
2018-07-21T22:24:48.641Z,16.90
2018-07-21T22:27:16.346Z,16.47
2018-07-21T22:29:44.234Z,16.47
2018-07-21T22:32:12.033Z,16.57
2018-07-21T22:34:39.718Z,16.07
2018-07-21T22:37:07.964Z,16.53
2018-07-21T22:39:35.780Z,16.67
2018-07-21T22:42:03.399Z,16.73
2018-07-21T22:44:31.183Z,17.43
2018-07-21T22:46:58.821Z,15.83
2018-07-21T22:49:26.384Z,15.20
2018-07-21T22:51:53.953Z,16.10
2018-07-21T22:54:21.530Z,15.57
2018-07-21T22:56:49.122Z,14.97
2018-07-21T22:59:16.825Z,16.23
2018-07-21T23:01:44.554Z,15.40
2018-07-21T23:04:12.390Z,15.90
2018-07-21T23:06:40.389Z,16.73
2018-07-21T23:09:08.603Z,18.00
2018-07-21T23:11:36.413Z,15.83
2018-07-21T23:14:04.064Z,16.57
2018-07-21T23:16:31.685Z,18.07
2018-07-21T23:18:59.350Z,17.93
2018-07-21T23:21:27.030Z,17.73
2018-07-21T23:23:54.629Z,18.60
2018-07-21T23:26:22.176Z,19.20
2018-07-21T23:28:49.791Z,18.77
2018-07-21T23:31:17.369Z,19.40
2018-07-21T23:33:45.022Z,17.17
2018-07-21T23:36:13.015Z,17.83
2018-07-21T23:38:40.952Z,16.60
2018-07-21T23:41:08.578Z,15.73
2018-07-21T23:43:36.165Z,14.33
2018-07-21T23:46:03.765Z,14.00
2018-07-21T23:48:31.421Z,13.73
2018-07-21T23:50:59.007Z,12.73
2018-07-21T23:53:26.637Z,11.57
2018-07-21T23:55:54.188Z,10.97
2018-07-21T23:58:21.727Z,12.17
